Bloomfield, Indiana
Current Conditions -  °F | °C
As of 12:53 PM on Monday 26 Jan 2015 (Local Time) from KBMG Reporting Station
Overcast Overcast  
Wind Chill: -7°   Ceiling: 1700
Heat Index: -3°   Visibility: 10mi
Dew Point: -6°   Wind: 8mph
Humidity: 78%   Direction: 280°W
Pressure: 29.93"   Gusts: NA
Location:  39.03°N, 86.94°W
Report Text: KBMG 261753Z 28007KT 10SM OVC017 M03/M06 A2993 RMK AO2 SLP144 T10281061 11022 21056 58007
Loading
Personal Weather Stations






























Interactive Weather Map New forecast layout! Learn more

10-Day Weather Forecast

Advertisements
Track Severe Weather on mobile